createdAt,value
2022-12-15T00:00:30.934Z,16.67
2022-12-15T00:03:24.590Z,16.23
2022-12-15T00:06:10.765Z,15.82
2022-12-15T00:08:56.068Z,15.82
2022-12-15T00:11:41.393Z,17.05
2022-12-15T00:14:27.341Z,17.05
2022-12-15T00:17:14.340Z,16.63
2022-12-15T00:19:59.755Z,17.23
2022-12-15T00:22:44.927Z,16.30
2022-12-15T00:25:30.258Z,16.55
2022-12-15T00:28:17.937Z,17.20
2022-12-15T00:31:03.316Z,16.15
2022-12-15T00:33:50.384Z,17.85
2022-12-15T00:36:35.805Z,17.63
2022-12-15T00:39:04.324Z,17.60
2022-12-15T00:41:32.477Z,17.80
2022-12-15T00:44:00.595Z,16.92
2022-12-15T00:46:46.267Z,18.40
2022-12-15T00:49:30.019Z,17.08
2022-12-15T00:52:15.905Z,18.35
2022-12-15T00:55:01.486Z,17.02
2022-12-15T00:57:46.768Z,17.13
2022-12-15T01:00:32.961Z,17.40
2022-12-15T01:03:18.832Z,17.38
2022-12-15T01:06:05.983Z,16.40
2022-12-15T01:08:51.197Z,17.17
2022-12-15T01:11:36.582Z,17.02
2022-12-15T01:14:21.855Z,18.50
2022-12-15T01:17:07.204Z,16.65
2022-12-15T01:19:54.770Z,16.60
2022-12-15T01:22:24.713Z,16.52
2022-12-15T01:24:52.755Z,17.08
2022-12-15T01:27:23.263Z,18.73
2022-12-15T01:29:51.376Z,18.48
2022-12-15T01:32:19.363Z,16.27
2022-12-15T01:34:47.432Z,17.75
2022-12-15T01:37:15.573Z,18.05
2022-12-15T01:40:02.353Z,18.13
2022-12-15T01:42:32.756Z,18.02
2022-12-15T01:45:33.830Z,16.30
2022-12-15T01:48:06.162Z,17.60
2022-12-15T01:50:38.908Z,17.08
2022-12-15T01:53:07.060Z,16.58
2022-12-15T01:55:37.985Z,17.08
2022-12-15T01:58:09.189Z,17.45
2022-12-15T02:00:37.413Z,16.50
2022-12-15T02:03:07.180Z,17.70
2022-12-15T02:05:35.700Z,15.85
2022-12-15T02:08:04.968Z,18.08
2022-12-15T02:10:47.852Z,17.08
2022-12-15T02:13:26.078Z,17.88
2022-12-15T02:16:01.426Z,16.80
2022-12-15T02:18:36.439Z,15.70
2022-12-15T02:21:11.322Z,17.05
2022-12-15T02:24:25.150Z,16.90
2022-12-15T02:27:16.988Z,17.10
2022-12-15T02:32:33.061Z,13.40
2022-12-15T02:35:04.617Z,16.27
2022-12-15T02:40:01.874Z,13.68
2022-12-15T02:42:34.623Z,15.52
2022-12-15T02:45:06.826Z,15.90
2022-12-15T02:47:46.112Z,15.63
2022-12-15T02:50:32.153Z,14.93
2022-12-15T02:53:10.103Z,16.42
2022-12-15T02:55:50.388Z,15.90
2022-12-15T02:58:28.291Z,14.77
2022-12-15T03:01:01.382Z,15.77
2022-12-15T03:03:37.121Z,14.27
2022-12-15T03:06:08.419Z,16.65
2022-12-15T03:08:36.394Z,16.75
2022-12-15T03:11:04.748Z,15.45
2022-12-15T03:13:33.170Z,16.25
2022-12-15T03:16:02.204Z,14.52
2022-12-15T03:18:30.332Z,15.90
2022-12-15T03:20:59.779Z,14.82
2022-12-15T03:23:28.062Z,16.13
2022-12-15T03:25:56.924Z,15.25
2022-12-15T03:28:24.994Z,15.10
2022-12-15T03:30:53.076Z,15.65
2022-12-15T03:33:21.577Z,16.58
2022-12-15T03:35:49.846Z,14.98
2022-12-15T03:38:19.683Z,16.52
2022-12-15T03:40:47.739Z,16.13
2022-12-15T03:43:15.731Z,15.32
2022-12-15T03:45:43.985Z,14.93
2022-12-15T03:48:12.005Z,14.70
2022-12-15T03:50:40.832Z,15.05
2022-12-15T03:53:08.908Z,14.80
2022-12-15T03:55:38.388Z,15.00
2022-12-15T03:58:06.397Z,15.57
2022-12-15T04:00:34.807Z,17.13
2022-12-15T04:03:03.019Z,15.23
2022-12-15T04:05:35.485Z,15.27
2022-12-15T04:08:03.710Z,13.45
2022-12-15T04:10:34.946Z,14.18
2022-12-15T04:15:34.444Z,12.65
2022-12-15T04:18:03.446Z,14.73
2022-12-15T04:20:34.194Z,14.40
2022-12-15T04:23:02.259Z,13.63
2022-12-15T04:25:50.163Z,13.50
2022-12-15T04:28:37.011Z,13.25
2022-12-15T04:31:27.324Z,13.80
2022-12-15T04:34:17.909Z,14.35
2022-12-15T04:37:05.175Z,12.80
2022-12-15T04:39:52.738Z,13.73
2022-12-15T04:42:38.970Z,14.70
2022-12-15T04:45:29.233Z,14.20
2022-12-15T04:48:14.718Z,12.38
2022-12-15T04:51:00.192Z,13.85
2022-12-15T04:53:48.075Z,13.60
2022-12-15T04:56:34.348Z,13.82
2022-12-15T04:59:22.430Z,13.75
2022-12-15T05:02:09.302Z,13.48
2022-12-15T05:04:56.930Z,14.07
2022-12-15T05:07:43.212Z,13.63
2022-12-15T05:10:28.873Z,14.02
2022-12-15T05:13:14.207Z,13.35
2022-12-15T05:15:59.416Z,13.32
2022-12-15T05:18:46.139Z,14.05
2022-12-15T05:21:31.536Z,13.60
2022-12-15T05:24:16.710Z,13.85
2022-12-15T05:27:02.044Z,13.82
2022-12-15T05:29:47.368Z,12.27
2022-12-15T05:32:15.403Z,13.73
2022-12-15T05:34:44.821Z,13.07
2022-12-15T05:37:12.942Z,13.23
2022-12-15T05:39:43.443Z,12.77
2022-12-15T05:42:13.567Z,14.10
2022-12-15T05:44:41.602Z,13.88
2022-12-15T05:47:09.640Z,13.60
2022-12-15T05:49:37.695Z,13.38
2022-12-15T05:52:09.541Z,12.63
2022-12-15T05:54:37.606Z,12.95
2022-12-15T05:57:05.789Z,13.65
2022-12-15T05:59:33.811Z,13.27
2022-12-15T06:02:01.930Z,14.20
2022-12-15T06:04:30.107Z,13.25
2022-12-15T06:07:00.686Z,13.15
2022-12-15T06:09:30.105Z,14.10
2022-12-15T06:11:58.186Z,13.63
2022-12-15T06:14:26.154Z,13.25
2022-12-15T06:16:54.227Z,14.27
2022-12-15T06:19:22.541Z,12.05
2022-12-15T06:21:50.917Z,13.27
2022-12-15T06:24:19.029Z,14.77
2022-12-15T06:26:50.806Z,13.73
2022-12-15T06:29:21.138Z,12.93
2022-12-15T06:31:49.206Z,13.18
2022-12-15T06:34:18.705Z,12.60
2022-12-15T06:36:46.818Z,12.35
2022-12-15T06:39:16.583Z,13.43
2022-12-15T06:41:45.396Z,12.65
2022-12-15T06:44:18.049Z,11.50
2022-12-15T06:46:46.855Z,12.23
2022-12-15T06:49:15.604Z,13.75
2022-12-15T06:51:45.038Z,12.68
2022-12-15T06:54:13.332Z,13.98
2022-12-15T06:56:42.326Z,11.02
2022-12-15T06:59:12.249Z,13.23
2022-12-15T07:01:43.101Z,11.52
2022-12-15T07:04:11.812Z,12.15
2022-12-15T07:06:41.195Z,12.88
2022-12-15T07:09:16.201Z,12.32
2022-12-15T07:11:44.275Z,12.73
2022-12-15T07:14:14.627Z,13.15
2022-12-15T07:16:45.604Z,12.40
2022-12-15T07:19:14.034Z,12.10
2022-12-15T07:21:42.569Z,13.25
2022-12-15T07:24:12.661Z,13.57
2022-12-15T07:26:40.851Z,13.05
2022-12-15T07:29:08.948Z,13.27
2022-12-15T07:31:36.962Z,12.15
2022-12-15T07:34:06.410Z,11.95
2022-12-15T07:36:34.858Z,11.90
2022-12-15T07:39:06.836Z,11.83
2022-12-15T07:41:38.796Z,12.68
2022-12-15T07:44:06.823Z,12.93
2022-12-15T07:46:34.982Z,13.27
2022-12-15T07:49:07.437Z,12.23
2022-12-15T07:51:35.630Z,12.27
2022-12-15T07:54:03.633Z,12.68
2022-12-15T07:56:37.409Z,12.38
2022-12-15T07:59:07.669Z,12.25
2022-12-15T08:01:36.361Z,13.27
2022-12-15T08:04:04.512Z,13.35
2022-12-15T08:06:33.952Z,13.13
2022-12-15T08:09:02.055Z,12.63
2022-12-15T08:11:34.494Z,13.07
2022-12-15T08:14:04.316Z,12.98
2022-12-15T08:16:34.644Z,13.50
2022-12-15T08:19:03.007Z,13.48
2022-12-15T08:21:31.816Z,13.05
2022-12-15T08:24:02.004Z,13.07
2022-12-15T08:26:32.216Z,13.48
2022-12-15T08:29:40.546Z,13.13
2022-12-15T08:31:52.854Z,13.20
2022-12-15T08:34:21.580Z,12.88
2022-12-15T08:36:49.616Z,14.43
2022-12-15T08:39:20.190Z,12.65
2022-12-15T08:41:50.866Z,13.40
2022-12-15T08:44:18.903Z,12.50
2022-12-15T08:46:46.913Z,13.65
2022-12-15T08:49:21.222Z,14.13
2022-12-15T08:51:50.764Z,14.32
2022-12-15T08:54:21.613Z,14.05
2022-12-15T08:56:50.441Z,13.80
2022-12-15T08:59:20.902Z,13.55
2022-12-15T09:01:49.028Z,13.32
2022-12-15T09:04:19.680Z,10.15
2022-12-15T09:06:50.445Z,13.82
2022-12-15T09:09:21.442Z,13.25
2022-12-15T09:11:49.842Z,12.95
2022-12-15T09:14:20.623Z,13.77
2022-12-15T09:16:51.014Z,14.00
2022-12-15T09:19:22.292Z,13.57
2022-12-15T09:21:52.458Z,12.68
2022-12-15T09:24:32.214Z,13.52
2022-12-15T09:27:03.265Z,13.27
2022-12-15T09:29:31.582Z,13.00
2022-12-15T09:32:01.939Z,12.32
2022-12-15T09:34:30.027Z,12.18
2022-12-15T09:36:58.097Z,12.70
2022-12-15T09:39:27.596Z,12.43
2022-12-15T09:42:00.619Z,13.88
2022-12-15T09:44:31.479Z,12.95
2022-12-15T09:47:09.988Z,13.23
2022-12-15T09:50:03.366Z,13.50
2022-12-15T09:52:40.346Z,12.02
2022-12-15T09:55:20.214Z,13.13
2022-12-15T09:57:54.007Z,13.27
2022-12-15T10:00:25.847Z,13.20
2022-12-15T10:06:14.695Z,13.82
2022-12-15T10:08:39.383Z,13.50
2022-12-15T10:11:19.718Z,12.63
2022-12-15T10:13:53.895Z,13.48
2022-12-15T10:16:27.725Z,12.60
2022-12-15T10:19:06.016Z,13.57
2022-12-15T10:21:34.607Z,13.40
2022-12-15T10:24:15.312Z,13.68
2022-12-15T10:26:49.613Z,13.40
2022-12-15T10:29:30.121Z,13.55
2022-12-15T10:32:05.119Z,13.02
2022-12-15T10:34:38.053Z,13.50
2022-12-15T10:37:07.075Z,13.68
2022-12-15T10:39:40.499Z,12.18
2022-12-15T10:42:15.603Z,13.35
2022-12-15T10:44:45.248Z,11.95
2022-12-15T10:47:22.704Z,13.27
2022-12-15T10:49:51.401Z,12.60
2022-12-15T10:52:27.373Z,13.05
2022-12-15T10:54:56.606Z,13.07
2022-12-15T10:57:31.787Z,12.80
2022-12-15T11:00:30.273Z,11.70
2022-12-15T11:02:59.388Z,12.48
2022-12-15T11:05:28.035Z,12.60
2022-12-15T11:08:15.586Z,12.23
2022-12-15T11:11:09.325Z,12.82
2022-12-15T11:13:39.525Z,11.88
2022-12-15T11:16:18.303Z,11.73
2022-12-15T11:18:50.527Z,12.48
2022-12-15T11:21:25.625Z,12.35
2022-12-15T11:24:00.643Z,12.48
2022-12-15T11:26:41.670Z,12.80
2022-12-15T11:29:25.767Z,12.45
2022-12-15T11:31:55.108Z,12.18
2022-12-15T11:34:27.682Z,12.80
2022-12-15T11:37:08.687Z,13.35
2022-12-15T11:39:52.704Z,12.25
2022-12-15T11:42:31.488Z,11.25
2022-12-15T11:45:07.029Z,11.88
2022-12-15T11:47:43.223Z,11.93
2022-12-15T11:50:23.052Z,11.32
2022-12-15T11:53:01.830Z,12.55
2022-12-15T11:55:41.918Z,12.65
2022-12-15T11:58:40.337Z,12.52
2022-12-15T12:01:20.008Z,12.32
2022-12-15T12:06:35.953Z,12.20
2022-12-15T12:09:39.718Z,11.30
2022-12-15T12:12:22.361Z,13.02
2022-12-15T12:15:04.446Z,11.88
2022-12-15T12:17:43.311Z,12.60
2022-12-15T12:20:18.846Z,12.05
2022-12-15T12:22:58.605Z,13.55
2022-12-15T12:25:29.753Z,13.20
2022-12-15T12:28:03.746Z,12.23
2022-12-15T12:30:40.001Z,12.48
2022-12-15T12:33:14.639Z,13.10
2022-12-15T12:35:49.885Z,12.73
2022-12-15T12:38:23.744Z,12.65
2022-12-15T12:41:02.631Z,13.32
2022-12-15T12:43:35.861Z,13.80
2022-12-15T12:46:11.673Z,13.80
2022-12-15T12:48:44.926Z,13.98
2022-12-15T12:51:27.478Z,14.73
2022-12-15T12:53:56.619Z,13.88
2022-12-15T12:56:34.567Z,14.25
2022-12-15T12:59:07.812Z,14.65
2022-12-15T13:01:38.498Z,14.52
2022-12-15T13:04:12.919Z,14.25
2022-12-15T13:07:11.538Z,13.93
2022-12-15T13:09:43.117Z,13.95
2022-12-15T13:12:53.010Z,14.15
2022-12-15T13:15:35.115Z,14.57
2022-12-15T13:18:08.444Z,13.88
2022-12-15T13:20:39.374Z,13.68
2022-12-15T13:23:36.960Z,14.80
2022-12-15T13:40:33.938Z,2.90
2022-12-15T13:43:09.204Z,3.03
2022-12-15T13:45:48.827Z,2.97
2022-12-15T13:48:30.746Z,2.72
2022-12-15T13:51:03.307Z,2.50
2022-12-15T13:53:33.961Z,2.47
2022-12-15T13:56:06.895Z,2.65
2022-12-15T13:58:39.338Z,2.67
2022-12-15T14:01:19.131Z,2.50
2022-12-15T14:03:57.612Z,2.80
2022-12-15T14:11:51.256Z,2.60
2022-12-15T14:14:17.812Z,2.30
2022-12-15T14:16:46.802Z,2.65
2022-12-15T14:19:18.778Z,3.10
2022-12-15T14:21:50.068Z,2.58
2022-12-15T14:24:38.472Z,3.20
2022-12-15T14:27:09.078Z,2.78
2022-12-15T14:29:39.085Z,2.60
2022-12-15T17:59:41.424Z,10.18
2022-12-15T18:02:12.487Z,10.73
2022-12-15T18:04:40.821Z,9.07
2022-12-15T18:07:16.756Z,9.57
2022-12-15T18:11:53.643Z,9.05
2022-12-15T18:14:23.755Z,9.32
2022-12-15T18:16:52.295Z,9.60
2022-12-15T18:19:20.850Z,9.25
2022-12-15T18:21:49.497Z,9.20
2022-12-15T18:24:21.590Z,8.60
2022-12-15T18:34:21.443Z,6.90
2022-12-15T18:36:51.367Z,53.53
2022-12-15T18:43:25.676Z,52.55
